Elbow Lake, MN

1:17 PM CDT on April 28, 2017 (GMT -0500)
Elbow Lake

Weather History for KY63 - October, 2012

Change the Weather History Date:

Friday, October 5, 2012

  Actual Average (KFFM) Record (KFFM)
Temperature  
Mean Temperature 32 °F -  
Max Temperature 37 °F 61 °F 93 °F (1963)
Min Temperature 26 °F 38 °F 24 °F (1988)
Degree Days  
Heating Degree Days 34    
Moisture  
Dew Point 27 °F    
Average Humidity 79    
Maximum Humidity 93    
Minimum Humidity 65    
Precipitation  
Precipitation 0.00 in - - ()
Sea Level Pressure  
Sea Level Pressure 30.19 in    
Wind  
Wind Speed 16 mph (NW)    
Max Wind Speed 25 mph    
Max Gust Speed 33 mph    
Visibility 10 miles    
Events      
Averages and records for this station are not official NWS values.
T = Trace of Precipitation, MM = Missing Value Source: NWS Daily Summary

Daily Weather History Graph

Daily Weather History Graph

Search for Another Location

Airport or City:

Trip Planner

Search our weather history database for the weather conditions in past years. The results will help you decide how hot, cold, wet, or windy it might be!

Date:

Astronomy

Oct. 05, 2012 Rise Set
Actual Time 7:28 AM CDT 6:55 PM CDT
Civil Twilight 6:58 AM CDT 7:25 PM CDT
Nautical Twilight 6:23 AM CDT 7:59 PM CDT
Astronomical Twilight 5:48 AM CDT 8:34 PM CDT
Moon 10:04 PM CDT (10/5) 12:52 PM CDT (10/5)
Length of Visible Light 12h 26m
Length of Day
11h 27m
Waning Gibbous, 74% of the Moon is Illuminated
Oct 5
Waning Gibbous
Oct 8
Last Quarter
Oct 15
New
Oct 21
First Quarter
Oct 29
Full

Hourly Weather History & Observations

Time (CDT) Temp. Windchill Dew Point Humidity Pressure Visibility Wind Dir Wind Speed Gust Speed Precip Events Conditions
12:15 AM 35.6 °F 25.5 °F 28.4 °F 75% 30.19 in 10.0 mi NW 17.3 mph 26.5 mph N/A   Overcast
12:35 AM 35.6 °F 25.5 °F 28.4 °F 75% 30.18 in 10.0 mi WNW 17.3 mph 21.9 mph N/A   Overcast
12:55 AM 35.6 °F 26.2 °F 28.4 °F 75% 30.18 in 10.0 mi WNW 15.0 mph 20.7 mph N/A   Overcast
1:15 AM 35.6 °F 26.6 °F 28.4 °F 75% 30.18 in 10.0 mi WNW 13.8 mph 20.7 mph N/A   Overcast
1:35 AM 33.8 °F 23.9 °F 28.4 °F 81% 30.18 in 10.0 mi WNW 15.0 mph - N/A   Overcast
1:55 AM 33.8 °F 24.3 °F 28.4 °F 81% 30.18 in 10.0 mi WNW 13.8 mph - N/A   Overcast
2:15 AM 33.8 °F 24.8 °F 28.4 °F 81% 30.18 in 10.0 mi WNW 12.7 mph - N/A   Overcast
2:35 AM 32.0 °F 22.5 °F 28.4 °F 87% 30.18 in 10.0 mi WNW 12.7 mph - N/A   Overcast
3:15 AM 30.2 °F 21.3 °F 26.6 °F 86% 30.18 in 10.0 mi WNW 10.4 mph - N/A   Clear
3:35 AM 30.2 °F 21.3 °F 26.6 °F 86% 30.17 in 10.0 mi WNW 10.4 mph 16.1 mph N/A   Clear
3:55 AM 30.2 °F 20.8 °F 26.6 °F 86% 30.16 in 10.0 mi WNW 11.5 mph - N/A   Mostly Cloudy
4:15 AM 30.2 °F 20.8 °F 26.6 °F 86% 30.16 in 10.0 mi WNW 11.5 mph - N/A   Mostly Cloudy
4:35 AM 30.2 °F 20.2 °F 26.6 °F 86% 30.16 in 10.0 mi WNW 12.7 mph - N/A   Scattered Clouds
4:55 AM 30.2 °F 20.2 °F 26.6 °F 86% 30.16 in 10.0 mi WNW 12.7 mph - N/A   Clear
5:15 AM 28.4 °F 18.0 °F 24.8 °F 86% 30.16 in 10.0 mi WNW 12.7 mph - N/A   Clear
5:35 AM 28.4 °F 18.5 °F 24.8 °F 86% 30.16 in 10.0 mi WNW 11.5 mph - N/A   Clear
5:55 AM 28.4 °F 18.0 °F 24.8 °F 86% 30.16 in 10.0 mi West 12.7 mph - N/A   Clear
6:15 AM 28.4 °F 18.0 °F 24.8 °F 86% 30.17 in 10.0 mi West 12.7 mph - N/A   Clear
6:35 AM 28.4 °F 18.0 °F 24.8 °F 86% 30.17 in 10.0 mi West 12.7 mph 16.1 mph N/A   Clear
6:55 AM 26.6 °F 15.7 °F 24.8 °F 93% 30.17 in 10.0 mi West 12.7 mph - N/A   Clear
7:15 AM 26.6 °F 16.2 °F 23.0 °F 86% 30.17 in 10.0 mi WNW 11.5 mph - N/A   Clear
7:35 AM 26.6 °F 15.7 °F 23.0 °F 86% 30.17 in 10.0 mi WNW 12.7 mph - N/A   Clear
7:55 AM 26.6 °F 15.7 °F 23.0 °F 86% 30.17 in 10.0 mi WNW 12.7 mph - N/A   Clear
8:15 AM 28.4 °F 17.0 °F 24.8 °F 86% 30.17 in 10.0 mi WNW 15.0 mph - N/A   Clear
8:35 AM 30.2 °F 18.5 °F 24.8 °F 80% 30.17 in 10.0 mi WNW 17.3 mph 20.7 mph N/A   Clear
8:55 AM 30.2 °F 18.5 °F 24.8 °F 80% 30.17 in 10.0 mi WNW 17.3 mph 23.0 mph N/A   Clear
9:15 AM 32.0 °F 21.2 °F 26.6 °F 80% 30.18 in 10.0 mi WNW 16.1 mph 23.0 mph N/A   Clear
9:35 AM 32.0 °F 20.5 °F 26.6 °F 80% 30.19 in 10.0 mi WNW 18.4 mph 25.3 mph N/A   Scattered Clouds
9:55 AM 32.0 °F 19.8 °F 26.6 °F 80% 30.19 in 10.0 mi NW 20.7 mph - N/A   Mostly Cloudy
10:15 AM 32.0 °F 20.8 °F 26.6 °F 80% 30.19 in 10.0 mi WNW 17.3 mph 28.8 mph N/A   Overcast
10:35 AM 33.8 °F 21.6 °F 26.6 °F 75% 30.19 in 10.0 mi NW 23.0 mph 28.8 mph N/A   Overcast
10:55 AM 33.8 °F 22.2 °F 26.6 °F 75% 30.20 in 10.0 mi NW 20.7 mph 28.8 mph N/A   Overcast
11:15 AM 33.8 °F 21.9 °F 26.6 °F 75% 30.19 in 10.0 mi NW 21.9 mph 32.2 mph N/A   Overcast
11:35 AM 35.6 °F 24.8 °F 26.6 °F 70% 30.19 in 10.0 mi WNW 19.6 mph 27.6 mph N/A   Overcast
11:55 AM 35.6 °F 24.5 °F 26.6 °F 70% 30.19 in 10.0 mi NNW 20.7 mph 26.5 mph N/A   Overcast
12:15 PM 35.6 °F 23.4 °F 28.4 °F 75% 30.19 in 10.0 mi NW 25.3 mph 29.9 mph N/A   Overcast
12:35 PM 35.6 °F 24.0 °F 26.6 °F 70% 30.19 in 10.0 mi NW 23.0 mph 29.9 mph N/A   Overcast
12:55 PM 35.6 °F 24.0 °F 28.4 °F 75% 30.19 in 10.0 mi NW 23.0 mph 28.8 mph N/A   Overcast
1:15 PM 37.4 °F 26.6 °F 28.4 °F 70% 30.19 in 10.0 mi NW 21.9 mph 28.8 mph N/A   Overcast
1:35 PM 37.4 °F 26.9 °F 28.4 °F 70% 30.19 in 10.0 mi NW 20.7 mph 25.3 mph N/A   Overcast
1:55 PM 37.4 °F 26.4 °F 26.6 °F 65% 30.19 in 10.0 mi NW 23.0 mph 31.1 mph N/A   Overcast
2:15 PM 37.4 °F 26.4 °F 26.6 °F 65% 30.19 in 10.0 mi WNW 23.0 mph 29.9 mph N/A   Overcast
2:35 PM 37.4 °F 26.9 °F 26.6 °F 65% 30.18 in 10.0 mi WNW 20.7 mph 32.2 mph N/A   Overcast
2:55 PM 37.4 °F 27.2 °F 26.6 °F 65% 30.18 in 10.0 mi NW 19.6 mph 27.6 mph N/A   Overcast
3:15 PM 37.4 °F 25.9 °F 26.6 °F 65% 30.19 in 10.0 mi NW 25.3 mph 28.8 mph N/A   Overcast
3:35 PM 37.4 °F 26.6 °F 28.4 °F 70% 30.18 in 10.0 mi WNW 21.9 mph 27.6 mph N/A   Overcast
3:55 PM 37.4 °F 27.2 °F 28.4 °F 70% 30.18 in 10.0 mi WNW 19.6 mph 26.5 mph N/A   Overcast
4:15 PM 37.4 °F 26.9 °F 26.6 °F 65% 30.18 in 10.0 mi WNW 20.7 mph 24.2 mph N/A   Overcast
4:35 PM 37.4 °F 27.5 °F 26.6 °F 65% 30.17 in 10.0 mi WNW 18.4 mph 33.4 mph N/A   Overcast
4:55 PM 37.4 °F 26.1 °F 26.6 °F 65% 30.18 in 10.0 mi NW 24.2 mph 28.8 mph N/A   Overcast
5:15 PM 37.4 °F 26.9 °F 26.6 °F 65% 30.18 in 10.0 mi WNW 20.7 mph 31.1 mph N/A   Overcast
5:35 PM 37.4 °F 26.9 °F 26.6 °F 65% 30.18 in 10.0 mi NW 20.7 mph 29.9 mph N/A   Overcast
5:55 PM 37.4 °F 25.9 °F 26.6 °F 65% 30.18 in 10.0 mi NW 25.3 mph 31.1 mph N/A   Overcast
6:15 PM 37.4 °F 27.8 °F 28.4 °F 70% 30.19 in 10.0 mi NW 17.3 mph 25.3 mph N/A   Overcast
6:35 PM 35.6 °F 26.2 °F 30.2 °F 81% 30.19 in 10.0 mi NNW 15.0 mph - N/A   Overcast
6:55 PM 35.6 °F 26.2 °F 30.2 °F 81% 30.20 in 10.0 mi NNW 15.0 mph 25.3 mph N/A   Overcast
7:15 PM 33.8 °F 22.8 °F 30.2 °F 87% 30.21 in 10.0 mi NNW 18.4 mph 26.5 mph N/A   Overcast
7:35 PM 33.8 °F 22.2 °F 30.2 °F 87% 30.21 in 10.0 mi NW 20.7 mph 25.3 mph N/A   Overcast
7:55 PM 33.8 °F 22.5 °F 28.4 °F 81% 30.21 in 10.0 mi NW 19.6 mph 26.5 mph N/A   Overcast
8:15 PM 33.8 °F 23.2 °F 30.2 °F 87% 30.21 in 10.0 mi NW 17.3 mph - N/A   Mostly Cloudy
8:35 PM 33.8 °F 23.5 °F 28.4 °F 81% 30.22 in 10.0 mi NW 16.1 mph - N/A   Scattered Clouds
8:55 PM 33.8 °F 24.3 °F 28.4 °F 81% 30.22 in 10.0 mi NW 13.8 mph 20.7 mph N/A   Mostly Cloudy
9:15 PM 33.8 °F 22.5 °F 30.2 °F 87% 30.23 in 10.0 mi NW 19.6 mph 24.2 mph N/A   Overcast
9:35 PM 33.8 °F 22.5 °F 30.2 °F 87% 30.22 in 10.0 mi NW 19.6 mph 28.8 mph N/A   Overcast
9:55 PM 32.0 °F 20.8 °F 30.2 °F 93% 30.23 in 10.0 mi NW 17.3 mph - N/A   Overcast
10:15 PM 32.0 °F 21.2 °F 28.4 °F 87% 30.23 in 10.0 mi NW 16.1 mph 24.2 mph N/A   Overcast
10:35 PM 32.0 °F 21.6 °F 30.2 °F 93% 30.23 in 10.0 mi NW 15.0 mph 21.9 mph N/A   Overcast
10:55 PM 32.0 °F 21.2 °F 30.2 °F 93% 30.23 in 10.0 mi NW 16.1 mph 20.7 mph N/A   Overcast
11:15 PM 32.0 °F 21.2 °F 30.2 °F 93% 30.23 in 10.0 mi NW 16.1 mph - N/A   Overcast
11:35 PM 32.0 °F 21.6 °F 30.2 °F 93% 30.23 in 10.0 mi NW 15.0 mph 24.2 mph N/A   Overcast
11:55 PM 32.0 °F 20.8 °F 30.2 °F 93% 30.23 in 10.0 mi NNW 17.3 mph 23.0 mph N/A   Overcast